createdAt,value
2019-05-07T00:02:23.866Z,98991.58
2019-05-07T00:04:52.353Z,98996.23
2019-05-07T00:07:22.413Z,98991.25
2019-05-07T00:09:52.575Z,98994.34
2019-05-07T00:12:23.024Z,98999.74
2019-05-07T00:14:58.925Z,98998.61
2019-05-07T00:17:22.858Z,98997.78
2019-05-07T00:19:52.601Z,99001.36
2019-05-07T00:22:22.688Z,99000.22
2019-05-07T00:24:52.133Z,98992.13
2019-05-07T00:27:22.588Z,98989.85
2019-05-07T00:29:52.155Z,98996.17
2019-05-07T00:32:22.180Z,98987.42
2019-05-07T00:34:54.256Z,98981.41
2019-05-07T00:37:24.438Z,98993.58
2019-05-07T00:39:54.579Z,98999.34
2019-05-07T00:43:19.083Z,98999.34
2019-05-07T00:45:52.855Z,98993.45
2019-05-07T00:48:23.479Z,99020.69
2019-05-07T00:50:53.276Z,98996.44
2019-05-07T00:53:23.663Z,98998.67
2019-05-07T00:55:52.595Z,98987.65
2019-05-07T00:58:26.329Z,98987.02
2019-05-07T01:00:53.118Z,98993.20
2019-05-07T01:03:22.275Z,98983.00
2019-05-07T01:05:52.748Z,98994.87
2019-05-07T01:08:22.501Z,98991.30
2019-05-07T01:10:52.857Z,98996.45
2019-05-07T01:13:23.423Z,98999.98
2019-05-07T01:15:53.205Z,98995.91
2019-05-07T01:18:23.240Z,98997.63
2019-05-07T01:20:53.324Z,98999.20
2019-05-07T01:23:22.829Z,98994.95
2019-05-07T01:25:52.625Z,98997.55
2019-05-07T01:28:22.257Z,98995.78
2019-05-07T01:30:52.764Z,98994.57
2019-05-07T01:33:23.098Z,98989.03
2019-05-07T01:36:13.244Z,98995.82
2019-05-07T01:38:42.695Z,98986.73
2019-05-07T01:41:12.512Z,98992.25
2019-05-07T01:43:42.914Z,98997.52
2019-05-07T01:46:12.249Z,98999.44
2019-05-07T01:48:42.938Z,99003.26
2019-05-07T01:51:12.846Z,99003.26
2019-05-07T01:53:43.023Z,99001.30
2019-05-07T01:56:12.432Z,98996.31
2019-05-07T01:58:42.505Z,99000.62
2019-05-07T02:01:13.095Z,98990.67
2019-05-07T02:03:52.764Z,98990.72
2019-05-07T02:06:23.529Z,98987.86
2019-05-07T02:08:53.638Z,98992.23
2019-05-07T02:11:33.001Z,98983.75
2019-05-07T02:14:02.049Z,98988.23
2019-05-07T02:16:32.536Z,98990.53
2019-05-07T02:19:02.137Z,98992.84
2019-05-07T02:21:32.801Z,98989.95
2019-05-07T02:24:03.186Z,98989.32
2019-05-07T02:26:32.151Z,98981.23
2019-05-07T02:29:02.770Z,98986.28
2019-05-07T02:31:33.782Z,98986.28
2019-05-07T02:34:02.797Z,98988.08
2019-05-07T02:36:33.977Z,98988.08
2019-05-07T02:39:15.625Z,98983.53
2019-05-07T02:41:44.546Z,98989.33
2019-05-07T02:44:14.103Z,98987.37
2019-05-07T02:46:59.727Z,98983.41
2019-05-07T02:49:32.598Z,98979.97
2019-05-07T02:52:18.175Z,98979.97
2019-05-07T02:55:04.247Z,98976.52
2019-05-07T02:57:33.912Z,98983.31
2019-05-07T03:00:04.758Z,98983.42
2019-05-07T03:02:33.504Z,98984.03
2019-05-07T03:05:05.243Z,98975.66
2019-05-07T03:07:33.445Z,98971.48
2019-05-07T03:10:03.545Z,98986.23
2019-05-07T03:12:33.531Z,98981.91
2019-05-07T03:15:04.445Z,98988.99
2019-05-07T03:17:33.412Z,98986.56
2019-05-07T03:20:03.831Z,98986.27
2019-05-07T03:22:33.782Z,98986.27
2019-05-07T03:25:16.809Z,98980.94
2019-05-07T03:27:45.313Z,98985.89
2019-05-07T03:30:17.350Z,98992.41
2019-05-07T03:33:07.118Z,98991.12
2019-05-07T03:35:37.714Z,98986.47
2019-05-07T03:38:06.273Z,98984.73
2019-05-07T03:40:35.905Z,98985.70
2019-05-07T03:43:06.056Z,98985.92
2019-05-07T03:45:36.330Z,98983.68
2019-05-07T03:48:06.598Z,98984.96
2019-05-07T03:50:35.065Z,98989.71
2019-05-07T03:53:03.569Z,98990.38
2019-05-07T03:55:33.236Z,98988.29
2019-05-07T03:58:03.197Z,98989.99
2019-05-07T04:00:33.333Z,98985.95
2019-05-07T04:03:03.666Z,98990.98
2019-05-07T04:05:34.184Z,98997.46
2019-05-07T04:08:03.502Z,98996.11
2019-05-07T04:10:33.811Z,98997.08
2019-05-07T04:13:04.541Z,98998.02
2019-05-07T04:15:33.297Z,99003.97
2019-05-07T04:18:03.735Z,99000.90
2019-05-07T04:20:33.423Z,99006.05
2019-05-07T04:23:04.370Z,99008.94
2019-05-07T04:25:49.180Z,99011.88
2019-05-07T04:28:23.538Z,99014.11
2019-05-07T04:30:53.347Z,99015.02
2019-05-07T04:33:23.944Z,99013.73
2019-05-07T04:35:54.192Z,99017.11
2019-05-07T04:38:23.839Z,99013.05
2019-05-07T04:40:53.713Z,99010.66
2019-05-07T04:43:23.347Z,99007.73
2019-05-07T04:45:53.648Z,99010.94
2019-05-07T04:48:23.287Z,99011.05
2019-05-07T04:50:54.318Z,99014.92
2019-05-07T04:53:23.803Z,99011.84
2019-05-07T04:55:53.544Z,99017.80
2019-05-07T04:58:23.625Z,99020.28
2019-05-07T05:00:53.788Z,99022.13
2019-05-07T05:03:24.338Z,99031.13
2019-05-07T05:05:53.523Z,99031.27
2019-05-07T05:08:23.308Z,99035.55
2019-05-07T05:10:53.742Z,99032.64
2019-05-07T05:13:23.688Z,99024.24
2019-05-07T05:15:52.846Z,99024.95
2019-05-07T05:18:22.011Z,99024.74
2019-05-07T05:21:08.425Z,99019.58
2019-05-07T05:23:38.541Z,99020.92
2019-05-07T05:26:07.035Z,99019.55
2019-05-07T05:28:35.514Z,99021.16
2019-05-07T05:31:05.727Z,99025.63
2019-05-07T05:33:34.205Z,99032.05
2019-05-07T05:36:03.139Z,99030.95
2019-05-07T05:38:32.858Z,99031.64
2019-05-07T05:41:02.738Z,99033.78
2019-05-07T05:43:35.691Z,99032.20
2019-05-07T05:46:08.794Z,99026.47
2019-05-07T05:48:37.283Z,99032.83
2019-05-07T05:51:07.419Z,99034.67
2019-05-07T05:53:43.505Z,99036.62
2019-05-07T05:56:13.883Z,99031.71
2019-05-07T05:58:52.827Z,99034.36
2019-05-07T06:01:38.819Z,99032.72
2019-05-07T06:04:08.924Z,99046.38
2019-05-07T06:07:01.126Z,99045.44
2019-05-07T06:09:25.775Z,99042.27
2019-05-07T06:11:58.835Z,99030.67
2019-05-07T06:14:37.778Z,99036.30
2019-05-07T06:17:22.967Z,99031.88
2019-05-07T06:20:02.971Z,99027.88
2019-05-07T06:22:38.653Z,99024.07
2019-05-07T06:25:15.307Z,99035.26
2019-05-07T06:27:43.933Z,99031.48
2019-05-07T06:30:12.958Z,99030.76
2019-05-07T06:32:42.996Z,99035.70
2019-05-07T06:35:12.393Z,99043.06
2019-05-07T06:37:42.923Z,99042.15
2019-05-07T06:40:26.703Z,99039.31
2019-05-07T06:43:12.294Z,99045.67
2019-05-07T06:45:51.902Z,99040.75
2019-05-07T06:48:37.167Z,99035.95
2019-05-07T06:50:56.827Z,99046.44
2019-05-07T06:53:30.182Z,99046.77
2019-05-07T06:56:02.537Z,99050.19
2019-05-07T06:58:32.687Z,99036.61
2019-05-07T07:01:12.192Z,99050.09
2019-05-07T07:04:02.685Z,99047.01
2019-05-07T07:06:36.086Z,99047.05
2019-05-07T07:09:25.865Z,99052.80
2019-05-07T07:12:02.248Z,99047.28
2019-05-07T07:14:32.731Z,99056.16
2019-05-07T07:17:02.305Z,99053.69
2019-05-07T07:19:32.494Z,99050.47
2019-05-07T07:22:02.399Z,99047.41
2019-05-07T07:24:32.915Z,99046.55
2019-05-07T07:27:02.438Z,99047.16
2019-05-07T07:29:32.742Z,99053.44
2019-05-07T07:32:05.551Z,99062.66
2019-05-07T07:34:35.672Z,99056.39
2019-05-07T07:37:10.901Z,99049.95
2019-05-07T07:39:38.556Z,99053.55
2019-05-07T07:42:08.765Z,99050.59
2019-05-07T07:44:37.324Z,99049.17
2019-05-07T07:47:05.827Z,99038.57
2019-05-07T07:49:34.583Z,99038.78
2019-05-07T07:52:03.366Z,99035.48
2019-05-07T07:54:32.239Z,99042.33
2019-05-07T07:57:02.583Z,99039.74
2019-05-07T07:59:38.368Z,99036.67
2019-05-07T08:02:23.589Z,99036.84
2019-05-07T08:04:52.758Z,99036.26
2019-05-07T08:07:22.863Z,99035.59
2019-05-07T08:09:52.099Z,99038.55
2019-05-07T08:12:22.203Z,99040.11
2019-05-07T08:14:51.897Z,99031.50
2019-05-07T08:17:22.374Z,99042.73
2019-05-07T08:19:51.978Z,99044.05
2019-05-07T08:22:22.644Z,99041.88
2019-05-07T08:24:51.881Z,99040.86
2019-05-07T08:27:22.186Z,99040.79
2019-05-07T08:29:52.480Z,99039.80
2019-05-07T08:32:32.670Z,99040.77
2019-05-07T08:35:05.612Z,99038.52
2019-05-07T08:37:34.121Z,99046.27
2019-05-07T08:40:03.191Z,99043.23
2019-05-07T08:42:32.147Z,99041.47
2019-05-07T08:45:02.885Z,99042.20
2019-05-07T08:47:33.354Z,99034.17
2019-05-07T08:50:02.907Z,99041.30
2019-05-07T08:52:32.703Z,99035.61
2019-05-07T08:55:02.167Z,99040.70
2019-05-07T08:57:31.911Z,99040.50
2019-05-07T09:00:02.228Z,99039.77
2019-05-07T09:02:32.573Z,99035.71
2019-05-07T09:05:02.992Z,99039.56
2019-05-07T09:07:32.217Z,99039.66
2019-05-07T09:10:02.491Z,99043.66
2019-05-07T09:12:31.859Z,99043.91
2019-05-07T09:15:02.189Z,99046.38
2019-05-07T09:17:31.814Z,99041.59
2019-05-07T09:20:02.609Z,99039.23
2019-05-07T09:22:32.302Z,99045.64
2019-05-07T09:25:03.123Z,99051.50
2019-05-07T09:27:42.497Z,99052.45
2019-05-07T09:30:13.571Z,99048.97
2019-05-07T09:32:43.943Z,99044.79
2019-05-07T09:35:14.232Z,99042.43
2019-05-07T09:37:42.708Z,99038.47
2019-05-07T09:40:12.630Z,99040.11
2019-05-07T09:42:42.213Z,99033.58
2019-05-07T09:45:12.487Z,99031.36
2019-05-07T09:47:41.781Z,99032.73
2019-05-07T09:50:11.915Z,99031.73
2019-05-07T09:52:42.505Z,99032.65
2019-05-07T09:55:14.872Z,99036.09
2019-05-07T09:57:42.471Z,99034.95
2019-05-07T10:00:12.538Z,99039.06
2019-05-07T10:02:42.509Z,99030.72
2019-05-07T10:05:11.428Z,99027.33
2019-05-07T10:07:42.205Z,99026.45
2019-05-07T10:10:12.017Z,99025.16
2019-05-07T10:13:01.898Z,99026.00
2019-05-07T10:15:32.930Z,99034.80
2019-05-07T10:18:08.338Z,99034.73
2019-05-07T10:20:36.904Z,99026.15
2019-05-07T10:23:05.574Z,99028.57
2019-05-07T10:25:40.013Z,99038.12
2019-05-07T10:28:08.631Z,99036.73
2019-05-07T10:30:37.601Z,99027.20
2019-05-07T10:33:06.151Z,99034.25
2019-05-07T10:35:34.654Z,99034.91
2019-05-07T10:38:03.310Z,99026.37
2019-05-07T10:40:32.772Z,99026.66
2019-05-07T10:43:01.409Z,99031.88
2019-05-07T10:45:34.786Z,99030.77
2019-05-07T10:48:07.773Z,99028.47
2019-05-07T10:50:39.255Z,99020.98
2019-05-07T10:53:07.947Z,99032.04
2019-05-07T10:55:36.527Z,99027.53
2019-05-07T10:58:05.157Z,99028.72
2019-05-07T11:00:33.899Z,99035.83
2019-05-07T11:03:02.590Z,99032.25
2019-05-07T11:05:32.638Z,99030.39
2019-05-07T11:08:02.098Z,99038.61
2019-05-07T11:10:32.691Z,99034.87
2019-05-07T11:13:02.346Z,99035.14
2019-05-07T11:15:32.768Z,99032.83
2019-05-07T11:18:12.745Z,99031.42
2019-05-07T11:20:49.822Z,99033.84
2019-05-07T11:23:11.894Z,99029.97
2019-05-07T11:25:42.103Z,99025.60
2019-05-07T11:28:12.305Z,99020.38
2019-05-07T11:30:42.571Z,99019.09
2019-05-07T11:33:12.791Z,99022.58
2019-05-07T11:35:42.285Z,99021.03
2019-05-07T11:38:21.121Z,99003.42
2019-05-07T11:40:42.804Z,99005.34
2019-05-07T11:43:22.300Z,99000.88
2019-05-07T11:45:54.310Z,98995.33
2019-05-07T11:48:24.136Z,99004.17
2019-05-07T11:51:05.971Z,99007.45
2019-05-07T11:53:36.095Z,99003.80
2019-05-07T11:56:04.734Z,99002.16
2019-05-07T11:58:33.216Z,99003.56
2019-05-07T12:01:06.705Z,99004.42
2019-05-07T12:03:35.182Z,98996.29
2019-05-07T12:06:03.693Z,99004.94
2019-05-07T12:08:42.558Z,98998.26
2019-05-07T12:11:02.587Z,99000.80
2019-05-07T12:13:32.325Z,99004.59
2019-05-07T12:16:03.013Z,99001.75
2019-05-07T12:18:31.974Z,99000.09
2019-05-07T12:21:03.750Z,98995.13
2019-05-07T12:23:32.998Z,99004.42
2019-05-07T12:26:02.312Z,99002.65
2019-05-07T12:28:32.832Z,98998.64
2019-05-07T12:31:12.267Z,99000.61
2019-05-07T12:33:45.313Z,99001.80
2019-05-07T12:36:15.617Z,99002.55
2019-05-07T12:38:44.094Z,99003.14
2019-05-07T12:41:23.495Z,99006.33
2019-05-07T12:43:52.065Z,99009.25
2019-05-07T12:46:22.336Z,99011.34
2019-05-07T12:48:52.393Z,99005.56
2019-05-07T12:51:31.662Z,99003.84
2019-05-07T12:53:53.057Z,98999.14
2019-05-07T12:56:21.610Z,99001.33
2019-05-07T12:58:57.971Z,99005.35
2019-05-07T13:01:43.208Z,99005.89
2019-05-07T13:04:16.203Z,99005.08
2019-05-07T13:07:02.625Z,99000.83
2019-05-07T13:09:32.481Z,99006.59
2019-05-07T13:12:02.948Z,99012.06
2019-05-07T13:14:31.369Z,99008.11
2019-05-07T13:16:59.873Z,99011.73
2019-05-07T13:19:28.349Z,98997.33
2019-05-07T13:21:56.834Z,99005.25
2019-05-07T13:24:25.333Z,99011.28
2019-05-07T13:26:53.815Z,99001.05
2019-05-07T13:29:22.367Z,99000.41
2019-05-07T13:31:54.260Z,99009.23
2019-05-07T13:34:22.999Z,99004.76
2019-05-07T13:36:54.770Z,99004.02
2019-05-07T13:39:32.506Z,99004.84
2019-05-07T13:42:12.651Z,99002.41
2019-05-07T13:44:52.113Z,99005.49
2019-05-07T13:47:26.008Z,98997.91
2019-05-07T13:49:57.088Z,98997.11
2019-05-07T13:52:25.815Z,98993.36
2019-05-07T13:54:54.768Z,98994.63
2019-05-07T13:57:23.606Z,98990.21
2019-05-07T13:59:53.064Z,98994.14
2019-05-07T14:02:26.155Z,98992.81
2019-05-07T14:04:54.797Z,98984.70
2019-05-07T14:07:25.094Z,98978.62
2019-05-07T14:09:53.702Z,98983.53
2019-05-07T14:12:23.077Z,98975.17
2019-05-07T14:14:53.135Z,98970.20
2019-05-07T14:17:22.108Z,98963.75
2019-05-07T14:19:52.874Z,98972.95
2019-05-07T14:22:22.548Z,98963.49
2019-05-07T14:24:53.054Z,98961.03
2019-05-07T14:27:21.880Z,98971.12
2019-05-07T14:29:52.139Z,98971.34
2019-05-07T14:32:22.651Z,98968.56
2019-05-07T14:35:07.955Z,98965.06
2019-05-07T14:37:44.070Z,98962.22
2019-05-07T14:40:13.432Z,98960.88
2019-05-07T14:42:43.532Z,98961.42
2019-05-07T14:45:12.283Z,98953.89
2019-05-07T14:47:44.434Z,98961.58
2019-05-07T14:50:12.338Z,98959.39
2019-05-07T14:52:43.069Z,98963.83
2019-05-07T14:55:12.855Z,98961.19
2019-05-07T14:57:42.061Z,98959.78
2019-05-07T15:00:12.284Z,98958.05
2019-05-07T15:02:42.168Z,98953.55
2019-05-07T15:05:11.965Z,98957.97
2019-05-07T15:07:41.699Z,98954.72
2019-05-07T15:10:10.723Z,98957.04
2019-05-07T15:12:39.346Z,98952.86
2019-05-07T15:15:08.597Z,98949.74
2019-05-07T15:17:38.787Z,98954.48
2019-05-07T15:20:07.664Z,98952.03
2019-05-07T15:22:49.853Z,98952.81
2019-05-07T15:25:17.080Z,98946.53
2019-05-07T15:27:47.906Z,98944.50
2019-05-07T15:30:16.553Z,98936.53
2019-05-07T15:32:45.109Z,98942.48
2019-05-07T15:35:13.671Z,98945.77
2019-05-07T15:37:42.811Z,98937.19
2019-05-07T15:40:11.511Z,98944.16
2019-05-07T15:42:42.006Z,98943.23
2019-05-07T15:45:12.471Z,98937.34
2019-05-07T15:47:42.465Z,98927.35
2019-05-07T15:50:12.487Z,98942.39
2019-05-07T15:52:42.810Z,98931.85
2019-05-07T15:55:12.160Z,98933.81
2019-05-07T15:57:42.667Z,98941.19
2019-05-07T16:00:13.035Z,98932.28
2019-05-07T16:02:45.262Z,98932.79
2019-05-07T16:05:13.839Z,98938.87
2019-05-07T16:07:43.705Z,98929.88
2019-05-07T16:10:15.019Z,98930.52
2019-05-07T16:12:42.492Z,98928.30
2019-05-07T16:15:13.669Z,98932.50
2019-05-07T16:17:43.069Z,98927.41
2019-05-07T16:20:14.190Z,98928.42
2019-05-07T16:22:46.628Z,98926.50
2019-05-07T16:25:15.115Z,98930.31
2019-05-07T16:27:43.690Z,98916.11
2019-05-07T16:30:14.277Z,98924.56
2019-05-07T16:32:42.961Z,98921.07
2019-05-07T16:35:12.496Z,98923.52
2019-05-07T16:37:42.865Z,98916.39
2019-05-07T16:40:12.685Z,98929.66
2019-05-07T16:42:42.857Z,98925.09
2019-05-07T16:45:13.149Z,98925.89
2019-05-07T16:47:41.945Z,98931.42
2019-05-07T16:50:12.786Z,98921.11
2019-05-07T16:52:42.031Z,98922.56
2019-05-07T16:55:12.261Z,98922.38
2019-05-07T16:57:42.608Z,98917.28
2019-05-07T17:00:16.479Z,98924.61
2019-05-07T17:02:52.560Z,98918.56
2019-05-07T17:05:22.840Z,98918.06
2019-05-07T17:07:59.091Z,98923.98
2019-05-07T17:10:29.118Z,98917.70
2019-05-07T17:12:58.977Z,98914.33
2019-05-07T17:15:27.457Z,98913.85
2019-05-07T17:18:02.740Z,98920.22
2019-05-07T17:20:32.709Z,98919.81
2019-05-07T17:23:03.021Z,98924.29
2019-05-07T17:25:37.723Z,98923.78
2019-05-07T17:28:08.103Z,98923.02
2019-05-07T17:30:37.838Z,98923.95
2019-05-07T17:33:07.001Z,98926.15
2019-05-07T17:35:35.485Z,98922.22
2019-05-07T17:38:07.205Z,98921.64
2019-05-07T17:40:34.261Z,98930.98
2019-05-07T17:43:03.264Z,98924.23
2019-05-07T17:45:32.431Z,98925.95
2019-05-07T17:48:03.128Z,98924.25
2019-05-07T17:50:36.551Z,98925.30
2019-05-07T17:53:06.552Z,98925.75
2019-05-07T17:55:35.031Z,98924.31
2019-05-07T17:58:03.602Z,98927.80
2019-05-07T18:00:32.849Z,98922.64
2019-05-07T18:03:19.454Z,98924.61
2019-05-07T18:05:47.994Z,98927.86
2019-05-07T18:08:16.495Z,98925.42
2019-05-07T18:10:44.978Z,98927.63
2019-05-07T18:13:13.482Z,98923.88
2019-05-07T18:15:42.755Z,98928.43
2019-05-07T18:18:12.814Z,98935.61
2019-05-07T18:20:42.186Z,98930.80
2019-05-07T18:23:16.653Z,98930.10
2019-05-07T18:25:42.898Z,98933.13
2019-05-07T18:28:14.757Z,98928.61
2019-05-07T18:30:43.578Z,98929.62
2019-05-07T18:33:16.461Z,98926.97
2019-05-07T18:35:46.817Z,98926.97
2019-05-07T18:38:15.313Z,98922.45
2019-05-07T18:40:43.796Z,98931.34
2019-05-07T18:43:12.420Z,98926.30
2019-05-07T18:45:40.888Z,98929.39
2019-05-07T18:48:09.370Z,98928.47
2019-05-07T18:50:37.855Z,98941.86
2019-05-07T18:53:06.361Z,98925.55
2019-05-07T18:55:34.833Z,98929.44
2019-05-07T18:58:03.339Z,98933.34
2019-05-07T19:00:35.930Z,98930.89
2019-05-07T19:03:04.585Z,98941.72
2019-05-07T19:05:33.149Z,98941.20
2019-05-07T19:08:07.673Z,98935.55
2019-05-07T19:10:32.957Z,98941.48
2019-05-07T19:13:01.605Z,98946.73
2019-05-07T19:15:30.102Z,98947.36
2019-05-07T19:17:59.354Z,98942.23
2019-05-07T19:20:27.867Z,98937.53
2019-05-07T19:22:59.795Z,98943.68
2019-05-07T19:25:28.340Z,98945.91
2019-05-07T19:27:56.821Z,98944.82
2019-05-07T19:30:25.579Z,98938.41
2019-05-07T19:32:54.135Z,98945.91
2019-05-07T19:35:23.238Z,98946.50
2019-05-07T19:37:52.892Z,98946.88
2019-05-07T19:40:21.568Z,98951.50
2019-05-07T19:42:52.264Z,98941.64
2019-05-07T19:45:24.208Z,98937.94
2019-05-07T19:47:52.328Z,98935.63
2019-05-07T19:50:23.149Z,98938.03
2019-05-07T19:52:52.162Z,98933.87
2019-05-07T19:55:21.981Z,98931.76
2019-05-07T19:57:52.347Z,98937.36
2019-05-07T20:00:22.985Z,98931.76
2019-05-07T20:02:53.258Z,98934.58
2019-05-07T20:05:21.831Z,98932.98
2019-05-07T20:07:55.198Z,98925.56
2019-05-07T20:10:33.022Z,98928.08
2019-05-07T20:13:03.100Z,98923.78
2019-05-07T20:15:32.693Z,98924.67
2019-05-07T20:18:03.152Z,98924.18
2019-05-07T20:20:33.155Z,98926.39
2019-05-07T20:23:02.551Z,98921.25
2019-05-07T20:25:33.277Z,98923.16
2019-05-07T20:28:02.166Z,98923.57
2019-05-07T20:30:32.830Z,98916.03
2019-05-07T20:33:03.123Z,98916.03
2019-05-07T20:35:32.573Z,98917.33
2019-05-07T20:38:02.945Z,98918.94
2019-05-07T20:40:32.170Z,98913.12
2019-05-07T20:43:01.923Z,98913.91
2019-05-07T20:45:31.997Z,98913.12
2019-05-07T20:48:02.565Z,98906.26
2019-05-07T20:50:33.085Z,98910.17
2019-05-07T20:53:02.017Z,98909.69
2019-05-07T20:55:38.304Z,98909.20
2019-05-07T20:58:07.251Z,98916.52
2019-05-07T21:00:35.780Z,98913.40
2019-05-07T21:03:19.623Z,98916.63
2019-05-07T21:05:53.173Z,98903.97
2019-05-07T21:08:22.820Z,98900.44
2019-05-07T21:10:53.509Z,98906.17
2019-05-07T21:13:30.371Z,98903.17
2019-05-07T21:15:52.752Z,98906.08
2019-05-07T21:18:23.273Z,98900.46
2019-05-07T21:20:52.996Z,98900.45
2019-05-07T21:23:23.118Z,98903.05
2019-05-07T21:25:52.865Z,98899.78
2019-05-07T21:28:21.673Z,98899.95
2019-05-07T21:30:52.134Z,98899.15
2019-05-07T21:33:22.581Z,98903.83
2019-05-07T21:35:52.278Z,98897.52
2019-05-07T21:38:22.427Z,98888.16
2019-05-07T21:40:51.142Z,98891.13
2019-05-07T21:43:21.913Z,98892.79
2019-05-07T21:45:49.919Z,98899.97
2019-05-07T21:48:18.439Z,98901.70
2019-05-07T21:50:46.906Z,98900.42
2019-05-07T21:53:32.531Z,98888.80
2019-05-07T21:56:12.331Z,98892.07
2019-05-07T21:58:45.516Z,98894.38
2019-05-07T22:01:19.014Z,98894.83
2019-05-07T22:03:49.142Z,98890.88
2019-05-07T22:06:17.729Z,98890.13
2019-05-07T22:08:46.210Z,98899.06
2019-05-07T22:11:14.874Z,98891.88
2019-05-07T22:13:43.689Z,98890.44
2019-05-07T22:16:13.048Z,98886.80
2019-05-07T22:18:42.694Z,98892.06
2019-05-07T22:21:12.406Z,98888.94
2019-05-07T22:23:42.830Z,98890.05
2019-05-07T22:26:20.137Z,98891.05
2019-05-07T22:28:42.175Z,98894.08
2019-05-07T22:31:27.331Z,98880.21
2019-05-07T22:34:13.860Z,98887.83
2019-05-07T22:36:43.134Z,98882.59
2019-05-07T22:39:12.591Z,98885.17
2019-05-07T22:41:42.458Z,98883.34
2019-05-07T22:44:11.991Z,98881.25
2019-05-07T22:46:42.163Z,98878.30
2019-05-07T22:49:12.284Z,98872.41
2019-05-07T22:51:40.854Z,98868.25
2019-05-07T22:54:09.384Z,98867.28
2019-05-07T22:56:57.418Z,98867.66
2019-05-07T22:59:25.915Z,98866.58
2019-05-07T23:01:55.081Z,98862.89
2019-05-07T23:04:23.693Z,98856.55
2019-05-07T23:06:52.784Z,98859.61
2019-05-07T23:09:22.309Z,98858.30
2019-05-07T23:11:52.688Z,98859.23
2019-05-07T23:14:22.542Z,98854.24
2019-05-07T23:16:55.037Z,98851.94
2019-05-07T23:19:22.132Z,98843.02
2019-05-07T23:21:52.161Z,98845.26
2019-05-07T23:24:22.730Z,98841.34
2019-05-07T23:26:53.347Z,98847.27
2019-05-07T23:29:22.467Z,98843.06
2019-05-07T23:31:52.930Z,98845.41
2019-05-07T23:34:22.081Z,98842.72
2019-05-07T23:36:53.063Z,98839.27
2019-05-07T23:39:22.597Z,98832.45
2019-05-07T23:41:58.663Z,98830.20
2019-05-07T23:44:27.168Z,98823.98
2019-05-07T23:46:55.651Z,98830.84
2019-05-07T23:49:24.169Z,98823.28
2019-05-07T23:51:53.240Z,98823.47
2019-05-07T23:54:22.980Z,98815.90
2019-05-07T23:57:05.385Z,98812.28
2019-05-07T23:59:22.353Z,98818.73
